sensor_id;sensor_type;location;lat;lon;timestamp;temperature;humidity
15615;DHT22;7907;51.368;6.730;2023-01-29T00:00:35;-1.10;99.90
15615;DHT22;7907;51.368;6.730;2023-01-29T00:03:03;-1.10;99.90
15615;DHT22;7907;51.368;6.730;2023-01-29T00:05:31;-1.20;99.90
15615;DHT22;7907;51.368;6.730;2023-01-29T00:08:04;-1.20;99.90
15615;DHT22;7907;51.368;6.730;2023-01-29T00:10:34;-1.20;99.90
15615;DHT22;7907;51.368;6.730;2023-01-29T00:13:04;-1.20;99.90
15615;DHT22;7907;51.368;6.730;2023-01-29T00:15:31;-1.20;99.90
15615;DHT22;7907;51.368;6.730;2023-01-29T00:18:00;-1.20;99.90
15615;DHT22;7907;51.368;6.730;2023-01-29T00:20:30;-1.20;99.90
15615;DHT22;7907;51.368;6.730;2023-01-29T00:23:01;-1.20;99.90
15615;DHT22;7907;51.368;6.730;2023-01-29T00:25:30;-1.30;99.90
15615;DHT22;7907;51.368;6.730;2023-01-29T00:28:01;-1.30;99.90
15615;DHT22;7907;51.368;6.730;2023-01-29T00:30:32;-1.30;99.90
15615;DHT22;7907;51.368;6.730;2023-01-29T00:32:59;-1.30;99.90
15615;DHT22;7907;51.368;6.730;2023-01-29T00:35:31;-1.30;99.90
15615;DHT22;7907;51.368;6.730;2023-01-29T00:37:59;-1.30;99.90
15615;DHT22;7907;51.368;6.730;2023-01-29T00:40:29;-1.30;99.90
15615;DHT22;7907;51.368;6.730;2023-01-29T00:43:18;-1.30;99.90
15615;DHT22;7907;51.368;6.730;2023-01-29T00:46:04;-1.40;99.90
15615;DHT22;7907;51.368;6.730;2023-01-29T00:48:34;-1.40;99.90
15615;DHT22;7907;51.368;6.730;2023-01-29T00:51:05;-1.40;99.90
15615;DHT22;7907;51.368;6.730;2023-01-29T00:53:36;-1.40;99.90
15615;DHT22;7907;51.368;6.730;2023-01-29T00:56:07;-1.40;99.90
15615;DHT22;7907;51.368;6.730;2023-01-29T00:58:37;-1.40;99.90
15615;DHT22;7907;51.368;6.730;2023-01-29T01:01:06;-1.50;99.90
15615;DHT22;7907;51.368;6.730;2023-01-29T01:03:37;-1.40;99.90
15615;DHT22;7907;51.368;6.730;2023-01-29T01:06:11;-1.40;99.90
15615;DHT22;7907;51.368;6.730;2023-01-29T01:08:42;-1.40;99.90
15615;DHT22;7907;51.368;6.730;2023-01-29T01:11:26;-1.40;99.90
15615;DHT22;7907;51.368;6.730;2023-01-29T01:13:56;-1.40;99.90
15615;DHT22;7907;51.368;6.730;2023-01-29T01:16:27;-1.40;99.90
15615;DHT22;7907;51.368;6.730;2023-01-29T01:19:05;-1.40;99.90
15615;DHT22;7907;51.368;6.730;2023-01-29T01:21:33;-1.50;99.90
15615;DHT22;7907;51.368;6.730;2023-01-29T01:24:10;-1.50;99.90
15615;DHT22;7907;51.368;6.730;2023-01-29T01:26:38;-1.50;99.90
15615;DHT22;7907;51.368;6.730;2023-01-29T01:29:07;-1.50;99.90
15615;DHT22;7907;51.368;6.730;2023-01-29T01:31:39;-1.50;99.90
15615;DHT22;7907;51.368;6.730;2023-01-29T01:34:11;-1.50;99.90
15615;DHT22;7907;51.368;6.730;2023-01-29T01:36:38;-1.60;99.90
15615;DHT22;7907;51.368;6.730;2023-01-29T01:39:10;-1.60;99.90
15615;DHT22;7907;51.368;6.730;2023-01-29T01:41:38;-1.60;99.90
15615;DHT22;7907;51.368;6.730;2023-01-29T01:47:29;-1.60;99.90
15615;DHT22;7907;51.368;6.730;2023-01-29T01:50:01;-1.60;99.90
15615;DHT22;7907;51.368;6.730;2023-01-29T01:52:39;-1.60;99.90
15615;DHT22;7907;51.368;6.730;2023-01-29T01:55:12;-1.60;99.90
15615;DHT22;7907;51.368;6.730;2023-01-29T01:57:42;-1.60;99.90
15615;DHT22;7907;51.368;6.730;2023-01-29T02:00:17;-1.60;99.90
15615;DHT22;7907;51.368;6.730;2023-01-29T02:02:52;-1.60;99.90
15615;DHT22;7907;51.368;6.730;2023-01-29T02:05:38;-1.60;99.90
15615;DHT22;7907;51.368;6.730;2023-01-29T02:08:28;-1.60;99.90
15615;DHT22;7907;51.368;6.730;2023-01-29T02:11:14;-1.60;99.90
15615;DHT22;7907;51.368;6.730;2023-01-29T02:13:42;-1.60;99.90
15615;DHT22;7907;51.368;6.730;2023-01-29T02:16:09;-1.60;99.90
15615;DHT22;7907;51.368;6.730;2023-01-29T02:18:40;-1.60;99.90
15615;DHT22;7907;51.368;6.730;2023-01-29T02:21:24;-1.60;99.90
15615;DHT22;7907;51.368;6.730;2023-01-29T02:27:14;-1.60;99.90
15615;DHT22;7907;51.368;6.730;2023-01-29T02:29:55;-1.60;99.90
15615;DHT22;7907;51.368;6.730;2023-01-29T02:32:31;-1.60;99.90
15615;DHT22;7907;51.368;6.730;2023-01-29T02:35:09;-1.60;99.90
15615;DHT22;7907;51.368;6.730;2023-01-29T02:38:04;-1.60;99.90
15615;DHT22;7907;51.368;6.730;2023-01-29T02:40:40;-1.60;99.90
15615;DHT22;7907;51.368;6.730;2023-01-29T02:43:19;-1.50;99.90
15615;DHT22;7907;51.368;6.730;2023-01-29T02:45:58;-1.50;99.90
15615;DHT22;7907;51.368;6.730;2023-01-29T02:48:38;-1.50;99.90
15615;DHT22;7907;51.368;6.730;2023-01-29T02:51:16;-1.50;99.90
15615;DHT22;7907;51.368;6.730;2023-01-29T02:53:52;-1.50;99.90
15615;DHT22;7907;51.368;6.730;2023-01-29T02:56:30;-1.50;99.90
15615;DHT22;7907;51.368;6.730;2023-01-29T02:59:04;-1.60;99.90
15615;DHT22;7907;51.368;6.730;2023-01-29T03:01:41;-1.50;99.90
15615;DHT22;7907;51.368;6.730;2023-01-29T03:04:13;-1.60;99.90
15615;DHT22;7907;51.368;6.730;2023-01-29T03:06:46;-1.60;99.90
15615;DHT22;7907;51.368;6.730;2023-01-29T03:09:21;-1.60;99.90
15615;DHT22;7907;51.368;6.730;2023-01-29T03:12:06;-1.60;99.90
15615;DHT22;7907;51.368;6.730;2023-01-29T03:14:45;-1.60;99.90
15615;DHT22;7907;51.368;6.730;2023-01-29T03:17:34;-1.60;99.90
15615;DHT22;7907;51.368;6.730;2023-01-29T03:20:05;-1.60;99.90
15615;DHT22;7907;51.368;6.730;2023-01-29T03:22:36;-1.60;99.90
15615;DHT22;7907;51.368;6.730;2023-01-29T03:25:08;-1.70;99.90
15615;DHT22;7907;51.368;6.730;2023-01-29T03:27:56;-1.70;99.90
15615;DHT22;7907;51.368;6.730;2023-01-29T03:30:45;-1.70;99.90
15615;DHT22;7907;51.368;6.730;2023-01-29T03:33:38;-1.70;99.90
15615;DHT22;7907;51.368;6.730;2023-01-29T03:36:13;-1.70;99.90
15615;DHT22;7907;51.368;6.730;2023-01-29T03:38:43;-1.70;99.90
15615;DHT22;7907;51.368;6.730;2023-01-29T03:41:21;-1.70;99.90
15615;DHT22;7907;51.368;6.730;2023-01-29T03:43:59;-1.70;99.90
15615;DHT22;7907;51.368;6.730;2023-01-29T03:46:36;-1.70;99.90
15615;DHT22;7907;51.368;6.730;2023-01-29T03:49:10;-1.70;99.90
15615;DHT22;7907;51.368;6.730;2023-01-29T03:51:46;-1.70;99.90
15615;DHT22;7907;51.368;6.730;2023-01-29T03:54:22;-1.70;99.90
15615;DHT22;7907;51.368;6.730;2023-01-29T03:56:56;-1.70;99.90
15615;DHT22;7907;51.368;6.730;2023-01-29T03:59:33;-1.70;99.90
15615;DHT22;7907;51.368;6.730;2023-01-29T04:02:07;-1.70;99.90
15615;DHT22;7907;51.368;6.730;2023-01-29T04:04:45;-1.70;99.90
15615;DHT22;7907;51.368;6.730;2023-01-29T04:07:19;-1.70;99.90
15615;DHT22;7907;51.368;6.730;2023-01-29T04:09:52;-1.70;99.90
15615;DHT22;7907;51.368;6.730;2023-01-29T04:12:24;-1.70;99.90
15615;DHT22;7907;51.368;6.730;2023-01-29T04:14:55;-1.70;99.90
15615;DHT22;7907;51.368;6.730;2023-01-29T04:17:27;-1.70;99.90
15615;DHT22;7907;51.368;6.730;2023-01-29T04:20:04;-1.60;99.90
15615;DHT22;7907;51.368;6.730;2023-01-29T04:22:34;-1.60;99.90
15615;DHT22;7907;51.368;6.730;2023-01-29T04:25:04;-1.60;99.90
15615;DHT22;7907;51.368;6.730;2023-01-29T04:27:44;-1.60;99.90
15615;DHT22;7907;51.368;6.730;2023-01-29T04:30:25;-1.60;99.90
15615;DHT22;7907;51.368;6.730;2023-01-29T04:33:03;-1.60;99.90
15615;DHT22;7907;51.368;6.730;2023-01-29T04:35:42;-1.50;99.90
15615;DHT22;7907;51.368;6.730;2023-01-29T04:38:17;-1.50;99.90
15615;DHT22;7907;51.368;6.730;2023-01-29T04:40:51;-1.40;99.90
15615;DHT22;7907;51.368;6.730;2023-01-29T04:43:25;-1.40;99.90
15615;DHT22;7907;51.368;6.730;2023-01-29T04:46:09;-1.30;99.90
15615;DHT22;7907;51.368;6.730;2023-01-29T04:48:57;-1.30;99.90
15615;DHT22;7907;51.368;6.730;2023-01-29T04:51:34;-1.20;99.90
15615;DHT22;7907;51.368;6.730;2023-01-29T04:54:16;-1.10;99.90
15615;DHT22;7907;51.368;6.730;2023-01-29T04:57:13;-1.00;99.90
15615;DHT22;7907;51.368;6.730;2023-01-29T04:59:53;-1.00;99.90
15615;DHT22;7907;51.368;6.730;2023-01-29T05:02:24;-0.90;99.90
15615;DHT22;7907;51.368;6.730;2023-01-29T05:04:53;-0.90;99.90
15615;DHT22;7907;51.368;6.730;2023-01-29T05:07:26;-0.80;99.90
15615;DHT22;7907;51.368;6.730;2023-01-29T05:09:57;-0.80;99.90
15615;DHT22;7907;51.368;6.730;2023-01-29T05:12:29;-0.70;99.90
15615;DHT22;7907;51.368;6.730;2023-01-29T05:15:01;-0.70;99.90
15615;DHT22;7907;51.368;6.730;2023-01-29T05:17:30;-0.60;99.90
15615;DHT22;7907;51.368;6.730;2023-01-29T05:19:58;-0.60;99.90
15615;DHT22;7907;51.368;6.730;2023-01-29T05:22:28;-0.50;99.90
15615;DHT22;7907;51.368;6.730;2023-01-29T05:24:57;-0.40;99.90
15615;DHT22;7907;51.368;6.730;2023-01-29T05:27:31;-0.40;99.90
15615;DHT22;7907;51.368;6.730;2023-01-29T05:30:18;-0.40;99.90
15615;DHT22;7907;51.368;6.730;2023-01-29T05:32:46;-0.40;99.90
15615;DHT22;7907;51.368;6.730;2023-01-29T05:35:14;-0.30;99.90
15615;DHT22;7907;51.368;6.730;2023-01-29T05:37:57;-0.30;99.90
15615;DHT22;7907;51.368;6.730;2023-01-29T05:40:26;-0.30;99.90
15615;DHT22;7907;51.368;6.730;2023-01-29T05:42:54;-0.20;99.90
15615;DHT22;7907;51.368;6.730;2023-01-29T05:45:24;-0.20;99.90
15615;DHT22;7907;51.368;6.730;2023-01-29T05:47:55;-0.10;99.90
15615;DHT22;7907;51.368;6.730;2023-01-29T05:50:32;-0.20;99.90
15615;DHT22;7907;51.368;6.730;2023-01-29T05:53:02;-0.10;99.90
15615;DHT22;7907;51.368;6.730;2023-01-29T05:55:30;0.00;99.90
15615;DHT22;7907;51.368;6.730;2023-01-29T05:57:58;0.00;99.90
15615;DHT22;7907;51.368;6.730;2023-01-29T06:00:26;0.00;99.90
15615;DHT22;7907;51.368;6.730;2023-01-29T06:02:53;0.10;99.90
15615;DHT22;7907;51.368;6.730;2023-01-29T06:05:21;0.10;99.90
15615;DHT22;7907;51.368;6.730;2023-01-29T06:07:49;0.10;99.90
15615;DHT22;7907;51.368;6.730;2023-01-29T06:10:22;0.20;99.90
15615;DHT22;7907;51.368;6.730;2023-01-29T06:12:50;0.20;99.90
15615;DHT22;7907;51.368;6.730;2023-01-29T06:15:18;0.20;99.90
15615;DHT22;7907;51.368;6.730;2023-01-29T06:17:49;0.30;99.90
15615;DHT22;7907;51.368;6.730;2023-01-29T06:20:16;0.30;99.90
15615;DHT22;7907;51.368;6.730;2023-01-29T06:22:44;0.40;99.90
15615;DHT22;7907;51.368;6.730;2023-01-29T06:25:12;0.40;99.90
15615;DHT22;7907;51.368;6.730;2023-01-29T06:27:43;0.40;99.90
15615;DHT22;7907;51.368;6.730;2023-01-29T06:30:12;0.40;99.90
15615;DHT22;7907;51.368;6.730;2023-01-29T06:32:40;0.50;99.90
15615;DHT22;7907;51.368;6.730;2023-01-29T06:35:08;0.50;99.90
15615;DHT22;7907;51.368;6.730;2023-01-29T06:37:37;0.50;99.90
15615;DHT22;7907;51.368;6.730;2023-01-29T06:40:06;0.50;99.90
15615;DHT22;7907;51.368;6.730;2023-01-29T06:42:35;0.60;99.90
15615;DHT22;7907;51.368;6.730;2023-01-29T06:45:07;0.60;99.90
15615;DHT22;7907;51.368;6.730;2023-01-29T06:47:35;0.60;99.90
15615;DHT22;7907;51.368;6.730;2023-01-29T06:50:06;0.70;99.90
15615;DHT22;7907;51.368;6.730;2023-01-29T06:52:38;0.70;99.90
15615;DHT22;7907;51.368;6.730;2023-01-29T06:55:08;0.70;99.90
15615;DHT22;7907;51.368;6.730;2023-01-29T06:57:39;0.70;99.90
15615;DHT22;7907;51.368;6.730;2023-01-29T07:00:11;0.70;99.90
15615;DHT22;7907;51.368;6.730;2023-01-29T07:02:40;0.70;99.90
15615;DHT22;7907;51.368;6.730;2023-01-29T07:05:07;0.80;99.90
15615;DHT22;7907;51.368;6.730;2023-01-29T07:07:38;0.80;99.90
15615;DHT22;7907;51.368;6.730;2023-01-29T07:10:08;0.80;99.90
15615;DHT22;7907;51.368;6.730;2023-01-29T07:12:36;0.80;99.90
15615;DHT22;7907;51.368;6.730;2023-01-29T07:15:05;0.80;99.90
15615;DHT22;7907;51.368;6.730;2023-01-29T07:17:40;0.80;99.90
15615;DHT22;7907;51.368;6.730;2023-01-29T07:20:09;0.90;99.90
15615;DHT22;7907;51.368;6.730;2023-01-29T07:22:39;0.80;99.90
15615;DHT22;7907;51.368;6.730;2023-01-29T07:25:09;0.90;99.90
15615;DHT22;7907;51.368;6.730;2023-01-29T07:27:37;0.80;99.90
15615;DHT22;7907;51.368;6.730;2023-01-29T07:30:06;0.80;99.90
15615;DHT22;7907;51.368;6.730;2023-01-29T07:32:35;0.90;99.90
15615;DHT22;7907;51.368;6.730;2023-01-29T07:35:09;0.90;99.90
15615;DHT22;7907;51.368;6.730;2023-01-29T07:37:37;0.80;99.90
15615;DHT22;7907;51.368;6.730;2023-01-29T07:40:10;0.90;99.90
15615;DHT22;7907;51.368;6.730;2023-01-29T07:42:39;0.90;99.90
15615;DHT22;7907;51.368;6.730;2023-01-29T07:45:13;0.90;99.90
15615;DHT22;7907;51.368;6.730;2023-01-29T07:47:43;0.90;99.90
15615;DHT22;7907;51.368;6.730;2023-01-29T07:50:17;0.90;99.90
15615;DHT22;7907;51.368;6.730;2023-01-29T07:52:52;0.90;99.90
15615;DHT22;7907;51.368;6.730;2023-01-29T07:55:23;1.00;99.90
15615;DHT22;7907;51.368;6.730;2023-01-29T07:57:57;1.00;99.90
15615;DHT22;7907;51.368;6.730;2023-01-29T08:00:28;1.00;99.90
15615;DHT22;7907;51.368;6.730;2023-01-29T08:03:04;1.10;99.90
15615;DHT22;7907;51.368;6.730;2023-01-29T08:05:37;1.10;99.90
15615;DHT22;7907;51.368;6.730;2023-01-29T08:08:07;1.20;99.90
15615;DHT22;7907;51.368;6.730;2023-01-29T08:10:41;1.20;99.90
15615;DHT22;7907;51.368;6.730;2023-01-29T08:13:22;1.20;99.90
15615;DHT22;7907;51.368;6.730;2023-01-29T08:15:53;1.30;99.90
15615;DHT22;7907;51.368;6.730;2023-01-29T08:18:28;1.30;99.90
15615;DHT22;7907;51.368;6.730;2023-01-29T08:21:09;1.30;99.90
15615;DHT22;7907;51.368;6.730;2023-01-29T08:23:40;1.40;99.90
15615;DHT22;7907;51.368;6.730;2023-01-29T08:26:16;1.50;99.90
15615;DHT22;7907;51.368;6.730;2023-01-29T08:28:59;1.50;99.90
15615;DHT22;7907;51.368;6.730;2023-01-29T08:31:42;1.50;99.90
15615;DHT22;7907;51.368;6.730;2023-01-29T08:34:20;1.60;99.90
15615;DHT22;7907;51.368;6.730;2023-01-29T08:37:06;1.60;99.90
15615;DHT22;7907;51.368;6.730;2023-01-29T08:39:38;1.60;99.90
15615;DHT22;7907;51.368;6.730;2023-01-29T08:42:06;1.60;99.90
15615;DHT22;7907;51.368;6.730;2023-01-29T08:44:48;1.60;99.90
15615;DHT22;7907;51.368;6.730;2023-01-29T08:47:20;1.60;99.90
15615;DHT22;7907;51.368;6.730;2023-01-29T08:49:59;1.70;99.90
15615;DHT22;7907;51.368;6.730;2023-01-29T08:52:32;1.60;99.90
15615;DHT22;7907;51.368;6.730;2023-01-29T08:55:00;1.70;99.90
15615;DHT22;7907;51.368;6.730;2023-01-29T08:57:48;1.70;99.90
15615;DHT22;7907;51.368;6.730;2023-01-29T09:00:22;1.80;99.90
15615;DHT22;7907;51.368;6.730;2023-01-29T09:02:59;1.80;99.90
15615;DHT22;7907;51.368;6.730;2023-01-29T09:05:33;1.80;99.90
15615;DHT22;7907;51.368;6.730;2023-01-29T09:08:23;1.70;99.90
15615;DHT22;7907;51.368;6.730;2023-01-29T09:11:14;1.70;99.90
15615;DHT22;7907;51.368;6.730;2023-01-29T09:14:08;1.70;99.90
15615;DHT22;7907;51.368;6.730;2023-01-29T09:16:39;1.70;99.90
15615;DHT22;7907;51.368;6.730;2023-01-29T09:19:18;1.70;99.90
15615;DHT22;7907;51.368;6.730;2023-01-29T09:21:54;1.70;99.90
15615;DHT22;7907;51.368;6.730;2023-01-29T09:24:36;1.80;99.90
15615;DHT22;7907;51.368;6.730;2023-01-29T09:27:21;1.90;99.90
15615;DHT22;7907;51.368;6.730;2023-01-29T09:30:06;1.80;99.90
15615;DHT22;7907;51.368;6.730;2023-01-29T09:32:43;1.80;99.90
15615;DHT22;7907;51.368;6.730;2023-01-29T09:35:24;1.90;99.90
15615;DHT22;7907;51.368;6.730;2023-01-29T09:38:08;1.90;99.90
15615;DHT22;7907;51.368;6.730;2023-01-29T09:40:51;2.00;99.90
15615;DHT22;7907;51.368;6.730;2023-01-29T09:43:42;2.00;99.90
15615;DHT22;7907;51.368;6.730;2023-01-29T09:46:26;2.00;99.90
15615;DHT22;7907;51.368;6.730;2023-01-29T09:49:16;2.00;99.90
15615;DHT22;7907;51.368;6.730;2023-01-29T09:51:52;2.10;99.90
15615;DHT22;7907;51.368;6.730;2023-01-29T09:54:26;2.10;99.90
15615;DHT22;7907;51.368;6.730;2023-01-29T09:57:08;2.10;99.90
15615;DHT22;7907;51.368;6.730;2023-01-29T09:59:48;2.20;99.90
15615;DHT22;7907;51.368;6.730;2023-01-29T10:02:48;2.10;99.90
15615;DHT22;7907;51.368;6.730;2023-01-29T10:05:48;2.30;99.90
15615;DHT22;7907;51.368;6.730;2023-01-29T10:08:51;2.30;99.90
15615;DHT22;7907;51.368;6.730;2023-01-29T10:11:37;2.30;99.90
15615;DHT22;7907;51.368;6.730;2023-01-29T10:14:16;2.30;99.90
15615;DHT22;7907;51.368;6.730;2023-01-29T10:17:07;2.30;99.90
15615;DHT22;7907;51.368;6.730;2023-01-29T10:19:59;2.40;99.90
15615;DHT22;7907;51.368;6.730;2023-01-29T10:23:09;2.40;99.90
15615;DHT22;7907;51.368;6.730;2023-01-29T10:25:54;2.40;99.90
15615;DHT22;7907;51.368;6.730;2023-01-29T10:28:30;2.50;99.90
15615;DHT22;7907;51.368;6.730;2023-01-29T10:31:23;2.60;99.90
15615;DHT22;7907;51.368;6.730;2023-01-29T10:34:12;2.60;99.90
15615;DHT22;7907;51.368;6.730;2023-01-29T10:37:09;2.50;99.90
15615;DHT22;7907;51.368;6.730;2023-01-29T10:39:48;2.70;99.90
15615;DHT22;7907;51.368;6.730;2023-01-29T10:42:38;2.60;99.90
15615;DHT22;7907;51.368;6.730;2023-01-29T10:45:24;2.60;99.90
15615;DHT22;7907;51.368;6.730;2023-01-29T10:51:26;2.70;99.90
15615;DHT22;7907;51.368;6.730;2023-01-29T10:54:12;2.70;99.90
15615;DHT22;7907;51.368;6.730;2023-01-29T10:56:59;2.70;99.90
15615;DHT22;7907;51.368;6.730;2023-01-29T10:59:40;2.70;99.90
15615;DHT22;7907;51.368;6.730;2023-01-29T11:02:22;2.80;99.90
15615;DHT22;7907;51.368;6.730;2023-01-29T11:04:50;2.70;99.90
15615;DHT22;7907;51.368;6.730;2023-01-29T11:07:31;2.70;99.90
15615;DHT22;7907;51.368;6.730;2023-01-29T11:10:12;2.80;99.90
15615;DHT22;7907;51.368;6.730;2023-01-29T11:12:41;2.70;99.90
15615;DHT22;7907;51.368;6.730;2023-01-29T11:15:20;2.80;99.90
15615;DHT22;7907;51.368;6.730;2023-01-29T11:18:08;2.70;99.90
15615;DHT22;7907;51.368;6.730;2023-01-29T11:20:41;2.80;99.90
15615;DHT22;7907;51.368;6.730;2023-01-29T11:23:27;2.80;99.90
15615;DHT22;7907;51.368;6.730;2023-01-29T11:25:56;2.80;99.90
15615;DHT22;7907;51.368;6.730;2023-01-29T11:28:38;2.80;99.90
15615;DHT22;7907;51.368;6.730;2023-01-29T11:31:34;2.90;99.90
15615;DHT22;7907;51.368;6.730;2023-01-29T11:34:12;3.00;99.90
15615;DHT22;7907;51.368;6.730;2023-01-29T11:36:41;2.90;99.90
15615;DHT22;7907;51.368;6.730;2023-01-29T11:39:21;2.90;99.90
15615;DHT22;7907;51.368;6.730;2023-01-29T11:41:55;3.00;99.90
15615;DHT22;7907;51.368;6.730;2023-01-29T11:44:29;3.00;99.90
15615;DHT22;7907;51.368;6.730;2023-01-29T11:47:10;3.00;99.90
15615;DHT22;7907;51.368;6.730;2023-01-29T11:49:39;3.10;99.90
15615;DHT22;7907;51.368;6.730;2023-01-29T11:52:15;3.10;99.90
15615;DHT22;7907;51.368;6.730;2023-01-29T11:54:49;3.10;99.90
15615;DHT22;7907;51.368;6.730;2023-01-29T11:57:25;3.20;99.90
15615;DHT22;7907;51.368;6.730;2023-01-29T11:59:55;3.20;99.90
15615;DHT22;7907;51.368;6.730;2023-01-29T12:02:32;3.20;99.90
15615;DHT22;7907;51.368;6.730;2023-01-29T12:05:12;3.20;99.90
15615;DHT22;7907;51.368;6.730;2023-01-29T12:07:42;3.30;99.90
15615;DHT22;7907;51.368;6.730;2023-01-29T12:10:32;3.30;99.90
15615;DHT22;7907;51.368;6.730;2023-01-29T12:13:04;3.40;99.90
15615;DHT22;7907;51.368;6.730;2023-01-29T12:15:38;3.40;99.90
15615;DHT22;7907;51.368;6.730;2023-01-29T12:18:12;3.50;99.90
15615;DHT22;7907;51.368;6.730;2023-01-29T12:20:47;3.50;99.90
15615;DHT22;7907;51.368;6.730;2023-01-29T12:23:26;3.50;99.90
15615;DHT22;7907;51.368;6.730;2023-01-29T12:26:05;3.50;99.90
15615;DHT22;7907;51.368;6.730;2023-01-29T12:28:48;3.60;99.90
15615;DHT22;7907;51.368;6.730;2023-01-29T12:31:28;3.60;99.90
15615;DHT22;7907;51.368;6.730;2023-01-29T12:34:04;3.50;99.90
15615;DHT22;7907;51.368;6.730;2023-01-29T12:36:37;3.60;99.90
15615;DHT22;7907;51.368;6.730;2023-01-29T12:39:11;3.60;99.90
15615;DHT22;7907;51.368;6.730;2023-01-29T12:41:50;3.60;99.90
15615;DHT22;7907;51.368;6.730;2023-01-29T12:44:21;3.70;99.90
15615;DHT22;7907;51.368;6.730;2023-01-29T12:47:04;3.70;99.90
15615;DHT22;7907;51.368;6.730;2023-01-29T12:49:54;3.80;99.90
15615;DHT22;7907;51.368;6.730;2023-01-29T12:52:32;3.80;99.90
15615;DHT22;7907;51.368;6.730;2023-01-29T12:55:12;3.70;99.90
15615;DHT22;7907;51.368;6.730;2023-01-29T12:57:47;3.80;99.90
15615;DHT22;7907;51.368;6.730;2023-01-29T13:00:25;3.80;99.90
15615;DHT22;7907;51.368;6.730;2023-01-29T13:02:57;3.80;99.90
15615;DHT22;7907;51.368;6.730;2023-01-29T13:05:29;3.80;99.90
15615;DHT22;7907;51.368;6.730;2023-01-29T13:08:03;3.80;99.90
15615;DHT22;7907;51.368;6.730;2023-01-29T13:10:40;3.90;99.90
15615;DHT22;7907;51.368;6.730;2023-01-29T13:13:17;3.90;99.90
15615;DHT22;7907;51.368;6.730;2023-01-29T13:15:54;3.90;99.90
15615;DHT22;7907;51.368;6.730;2023-01-29T13:18:35;3.90;99.90
15615;DHT22;7907;51.368;6.730;2023-01-29T13:21:07;4.00;99.90
15615;DHT22;7907;51.368;6.730;2023-01-29T13:23:42;3.90;99.90
15615;DHT22;7907;51.368;6.730;2023-01-29T13:26:12;3.90;99.90
15615;DHT22;7907;51.368;6.730;2023-01-29T13:28:44;3.90;99.90
15615;DHT22;7907;51.368;6.730;2023-01-29T13:31:22;3.90;99.90
15615;DHT22;7907;51.368;6.730;2023-01-29T13:33:55;3.90;99.90
15615;DHT22;7907;51.368;6.730;2023-01-29T13:36:27;3.90;99.90
15615;DHT22;7907;51.368;6.730;2023-01-29T13:39:02;3.90;99.90
15615;DHT22;7907;51.368;6.730;2023-01-29T13:41:32;4.00;99.90
15615;DHT22;7907;51.368;6.730;2023-01-29T13:44:05;4.00;99.90
15615;DHT22;7907;51.368;6.730;2023-01-29T13:46:39;3.90;99.90
15615;DHT22;7907;51.368;6.730;2023-01-29T13:52:22;3.90;99.90
15615;DHT22;7907;51.368;6.730;2023-01-29T13:54:56;3.90;99.90
15615;DHT22;7907;51.368;6.730;2023-01-29T13:57:52;3.90;99.90
15615;DHT22;7907;51.368;6.730;2023-01-29T14:00:48;3.90;99.90
15615;DHT22;7907;51.368;6.730;2023-01-29T14:03:51;3.90;99.90
15615;DHT22;7907;51.368;6.730;2023-01-29T14:06:50;3.90;99.90
15615;DHT22;7907;51.368;6.730;2023-01-29T14:12:42;4.00;99.90
15615;DHT22;7907;51.368;6.730;2023-01-29T14:15:31;4.00;99.90
15615;DHT22;7907;51.368;6.730;2023-01-29T14:18:15;4.00;99.90
15615;DHT22;7907;51.368;6.730;2023-01-29T14:21:00;4.00;99.90
15615;DHT22;7907;51.368;6.730;2023-01-29T14:23:40;4.00;99.90
15615;DHT22;7907;51.368;6.730;2023-01-29T14:26:39;4.00;99.90
15615;DHT22;7907;51.368;6.730;2023-01-29T14:29:17;4.00;99.90
15615;DHT22;7907;51.368;6.730;2023-01-29T14:31:49;4.00;99.90
15615;DHT22;7907;51.368;6.730;2023-01-29T14:34:29;4.00;99.90
15615;DHT22;7907;51.368;6.730;2023-01-29T14:37:00;4.10;99.90
15615;DHT22;7907;51.368;6.730;2023-01-29T14:39:34;4.00;99.90
15615;DHT22;7907;51.368;6.730;2023-01-29T14:42:14;4.10;99.90
15615;DHT22;7907;51.368;6.730;2023-01-29T14:44:57;4.10;99.90
15615;DHT22;7907;51.368;6.730;2023-01-29T14:51:04;4.10;99.90
15615;DHT22;7907;51.368;6.730;2023-01-29T14:53:57;4.10;99.90
15615;DHT22;7907;51.368;6.730;2023-01-29T14:56:32;4.00;99.90
15615;DHT22;7907;51.368;6.730;2023-01-29T14:59:11;4.10;99.90
15615;DHT22;7907;51.368;6.730;2023-01-29T15:01:47;4.10;99.90
15615;DHT22;7907;51.368;6.730;2023-01-29T15:04:21;4.00;99.90
15615;DHT22;7907;51.368;6.730;2023-01-29T15:06:56;4.00;99.90
15615;DHT22;7907;51.368;6.730;2023-01-29T15:09:33;4.10;99.90
15615;DHT22;7907;51.368;6.730;2023-01-29T15:12:13;4.00;99.90
15615;DHT22;7907;51.368;6.730;2023-01-29T15:14:46;4.00;99.90
15615;DHT22;7907;51.368;6.730;2023-01-29T15:17:23;4.00;99.90
15615;DHT22;7907;51.368;6.730;2023-01-29T15:19:51;4.00;99.90
15615;DHT22;7907;51.368;6.730;2023-01-29T15:22:20;4.00;99.90
15615;DHT22;7907;51.368;6.730;2023-01-29T15:25:03;4.00;99.90
15615;DHT22;7907;51.368;6.730;2023-01-29T15:27:32;4.00;99.90
15615;DHT22;7907;51.368;6.730;2023-01-29T15:30:02;4.00;99.90
15615;DHT22;7907;51.368;6.730;2023-01-29T15:32:34;3.90;99.90
15615;DHT22;7907;51.368;6.730;2023-01-29T15:35:09;4.00;99.90
15615;DHT22;7907;51.368;6.730;2023-01-29T15:37:42;3.90;99.90
15615;DHT22;7907;51.368;6.730;2023-01-29T15:40:14;3.90;99.90
15615;DHT22;7907;51.368;6.730;2023-01-29T15:42:46;3.90;99.90
15615;DHT22;7907;51.368;6.730;2023-01-29T15:45:26;3.80;99.90
15615;DHT22;7907;51.368;6.730;2023-01-29T15:47:57;3.80;99.90
15615;DHT22;7907;51.368;6.730;2023-01-29T15:50:28;3.80;99.90
15615;DHT22;7907;51.368;6.730;2023-01-29T15:53:01;3.70;99.90
15615;DHT22;7907;51.368;6.730;2023-01-29T15:55:44;3.80;99.90
15615;DHT22;7907;51.368;6.730;2023-01-29T15:58:15;3.70;99.90
15615;DHT22;7907;51.368;6.730;2023-01-29T16:00:51;3.80;99.90
15615;DHT22;7907;51.368;6.730;2023-01-29T16:03:24;3.80;99.90
15615;DHT22;7907;51.368;6.730;2023-01-29T16:05:54;3.80;99.90
15615;DHT22;7907;51.368;6.730;2023-01-29T16:08:33;3.80;99.90
15615;DHT22;7907;51.368;6.730;2023-01-29T16:11:03;3.70;99.90
15615;DHT22;7907;51.368;6.730;2023-01-29T16:13:32;3.70;99.90
15615;DHT22;7907;51.368;6.730;2023-01-29T16:16:03;3.70;99.90
15615;DHT22;7907;51.368;6.730;2023-01-29T16:18:34;3.70;99.90
15615;DHT22;7907;51.368;6.730;2023-01-29T16:21:07;3.70;99.90
15615;DHT22;7907;51.368;6.730;2023-01-29T16:23:44;3.70;99.90
15615;DHT22;7907;51.368;6.730;2023-01-29T16:26:16;3.70;99.90
15615;DHT22;7907;51.368;6.730;2023-01-29T16:28:44;3.70;99.90
15615;DHT22;7907;51.368;6.730;2023-01-29T16:31:19;3.70;99.90
15615;DHT22;7907;51.368;6.730;2023-01-29T16:33:49;3.70;99.90
15615;DHT22;7907;51.368;6.730;2023-01-29T16:36:17;3.70;99.90
15615;DHT22;7907;51.368;6.730;2023-01-29T16:38:49;3.70;99.90
15615;DHT22;7907;51.368;6.730;2023-01-29T16:41:28;3.70;99.90
15615;DHT22;7907;51.368;6.730;2023-01-29T16:43:58;3.70;99.90
15615;DHT22;7907;51.368;6.730;2023-01-29T16:46:34;3.70;99.90
15615;DHT22;7907;51.368;6.730;2023-01-29T16:52:17;3.70;99.90
15615;DHT22;7907;51.368;6.730;2023-01-29T16:54:49;3.80;99.90
15615;DHT22;7907;51.368;6.730;2023-01-29T16:57:20;3.80;99.90
15615;DHT22;7907;51.368;6.730;2023-01-29T16:59:53;3.80;99.90
15615;DHT22;7907;51.368;6.730;2023-01-29T17:02:24;3.80;99.90
15615;DHT22;7907;51.368;6.730;2023-01-29T17:04:56;3.80;99.90
15615;DHT22;7907;51.368;6.730;2023-01-29T17:07:25;3.80;99.90
15615;DHT22;7907;51.368;6.730;2023-01-29T17:09:57;3.80;99.90
15615;DHT22;7907;51.368;6.730;2023-01-29T17:12:26;3.80;99.90
15615;DHT22;7907;51.368;6.730;2023-01-29T17:14:56;3.80;99.90